sensor_id;sensor_type;location;lat;lon;timestamp;pressure;altitude;pressure_sealevel;temperature;humidity
20987;BME280;10652;50.306;8.570;2023-07-31T00:01:54;97751.72;;;16.93;74.51
20987;BME280;10652;50.306;8.570;2023-07-31T00:05:56;97763.75;;;16.86;75.16
20987;BME280;10652;50.306;8.570;2023-07-31T00:09:59;97755.31;;;16.81;77.20
20987;BME280;10652;50.306;8.570;2023-07-31T00:14:01;97756.88;;;16.72;77.65
20987;BME280;10652;50.306;8.570;2023-07-31T00:18:03;97758.91;;;16.69;79.55
20987;BME280;10652;50.306;8.570;2023-07-31T00:22:05;97748.66;;;16.64;79.46
20987;BME280;10652;50.306;8.570;2023-07-31T00:26:07;97749.09;;;16.58;79.64
20987;BME280;10652;50.306;8.570;2023-07-31T00:30:10;97751.06;;;16.56;80.27
20987;BME280;10652;50.306;8.570;2023-07-31T00:34:12;97747.00;;;16.50;80.67
20987;BME280;10652;50.306;8.570;2023-07-31T00:38:14;97742.66;;;16.49;81.32
20987;BME280;10652;50.306;8.570;2023-07-31T00:42:16;97736.66;;;16.47;82.15
20987;BME280;10652;50.306;8.570;2023-07-31T00:46:19;97740.50;;;16.43;82.17
20987;BME280;10652;50.306;8.570;2023-07-31T00:50:24;97741.22;;;16.45;82.74
20987;BME280;10652;50.306;8.570;2023-07-31T00:54:26;97741.00;;;16.48;83.05
20987;BME280;10652;50.306;8.570;2023-07-31T00:58:28;97732.31;;;16.46;82.57
20987;BME280;10652;50.306;8.570;2023-07-31T01:02:30;97732.53;;;16.43;82.33
20987;BME280;10652;50.306;8.570;2023-07-31T01:11:41;97711.91;;;16.36;83.19
20987;BME280;10652;50.306;8.570;2023-07-31T01:15:44;97713.84;;;16.34;83.32
20987;BME280;10652;50.306;8.570;2023-07-31T01:19:47;97704.28;;;16.31;83.18
20987;BME280;10652;50.306;8.570;2023-07-31T01:28:20;97703.06;;;16.24;82.87
20987;BME280;10652;50.306;8.570;2023-07-31T01:32:28;97709.44;;;16.21;83.23
20987;BME280;10652;50.306;8.570;2023-07-31T01:36:30;97715.38;;;16.25;84.54
20987;BME280;10652;50.306;8.570;2023-07-31T01:40:34;97701.53;;;16.33;83.99
20987;BME280;10652;50.306;8.570;2023-07-31T01:44:37;97689.84;;;16.35;83.61
20987;BME280;10652;50.306;8.570;2023-07-31T01:48:39;97680.09;;;16.36;82.98
20987;BME280;10652;50.306;8.570;2023-07-31T01:52:41;97680.72;;;16.39;82.85
20987;BME280;10652;50.306;8.570;2023-07-31T01:56:43;97678.66;;;16.43;82.33
20987;BME280;10652;50.306;8.570;2023-07-31T02:00:46;97677.72;;;16.44;82.13
20987;BME280;10652;50.306;8.570;2023-07-31T02:04:48;97677.47;;;16.47;81.92
20987;BME280;10652;50.306;8.570;2023-07-31T02:08:50;97676.38;;;16.49;81.27
20987;BME280;10652;50.306;8.570;2023-07-31T02:12:53;97682.41;;;16.51;81.40
20987;BME280;10652;50.306;8.570;2023-07-31T02:16:55;97672.34;;;16.56;80.86
20987;BME280;10652;50.306;8.570;2023-07-31T02:20:57;97664.88;;;16.61;80.62
20987;BME280;10652;50.306;8.570;2023-07-31T02:25:00;97668.03;;;16.67;80.61
20987;BME280;10652;50.306;8.570;2023-07-31T02:29:02;97662.56;;;16.68;80.33
20987;BME280;10652;50.306;8.570;2023-07-31T02:33:05;97662.47;;;16.70;79.71
20987;BME280;10652;50.306;8.570;2023-07-31T02:37:07;97662.22;;;16.73;79.63
20987;BME280;10652;50.306;8.570;2023-07-31T02:41:10;97661.50;;;16.71;79.46
20987;BME280;10652;50.306;8.570;2023-07-31T02:45:12;97660.66;;;16.70;79.98
20987;BME280;10652;50.306;8.570;2023-07-31T02:49:14;97671.13;;;16.72;80.82
20987;BME280;10652;50.306;8.570;2023-07-31T02:53:16;97663.06;;;16.73;80.55
20987;BME280;10652;50.306;8.570;2023-07-31T02:57:18;97662.47;;;16.70;79.63
20987;BME280;10652;50.306;8.570;2023-07-31T03:01:20;97675.84;;;16.68;80.81
20987;BME280;10652;50.306;8.570;2023-07-31T03:05:23;97662.47;;;16.70;81.37
20987;BME280;10652;50.306;8.570;2023-07-31T03:09:25;97655.47;;;16.69;81.58
20987;BME280;10652;50.306;8.570;2023-07-31T03:13:27;97646.06;;;16.64;81.27
20987;BME280;10652;50.306;8.570;2023-07-31T03:17:29;97656.44;;;16.56;82.04
20987;BME280;10652;50.306;8.570;2023-07-31T03:21:31;97659.63;;;16.49;82.69
20987;BME280;10652;50.306;8.570;2023-07-31T03:25:33;97653.19;;;16.53;85.63
20987;BME280;10652;50.306;8.570;2023-07-31T03:29:35;97656.63;;;16.53;83.83
20987;BME280;10652;50.306;8.570;2023-07-31T03:33:37;97669.63;;;16.45;83.54
20987;BME280;10652;50.306;8.570;2023-07-31T03:37:39;97662.16;;;16.39;84.09
20987;BME280;10652;50.306;8.570;2023-07-31T03:41:42;97668.28;;;16.40;84.99
20987;BME280;10652;50.306;8.570;2023-07-31T03:45:44;97668.06;;;16.43;84.97
20987;BME280;10652;50.306;8.570;2023-07-31T03:49:46;97651.66;;;16.38;85.33
20987;BME280;10652;50.306;8.570;2023-07-31T03:53:49;97653.72;;;16.34;86.41
20987;BME280;10652;50.306;8.570;2023-07-31T03:57:51;97657.06;;;16.36;87.06
20987;BME280;10652;50.306;8.570;2023-07-31T04:01:53;97653.72;;;16.34;86.83
20987;BME280;10652;50.306;8.570;2023-07-31T04:05:55;97654.66;;;16.33;86.96
20987;BME280;10652;50.306;8.570;2023-07-31T04:10:00;97652.00;;;16.33;87.92
20987;BME280;10652;50.306;8.570;2023-07-31T04:14:02;97643.81;;;16.36;88.56
20987;BME280;10652;50.306;8.570;2023-07-31T04:18:05;97638.50;;;16.36;88.10
20987;BME280;10652;50.306;8.570;2023-07-31T04:22:07;97647.66;;;16.32;88.13
20987;BME280;10652;50.306;8.570;2023-07-31T04:26:09;97644.31;;;16.30;89.13
20987;BME280;10652;50.306;8.570;2023-07-31T04:30:11;97647.66;;;16.32;89.32
20987;BME280;10652;50.306;8.570;2023-07-31T04:34:13;97643.94;;;16.35;89.11
20987;BME280;10652;50.306;8.570;2023-07-31T04:38:15;97642.41;;;16.43;89.21
20987;BME280;10652;50.306;8.570;2023-07-31T04:42:17;97626.97;;;16.48;88.45
20987;BME280;10652;50.306;8.570;2023-07-31T04:46:19;97629.91;;;16.56;88.50
20987;BME280;10652;50.306;8.570;2023-07-31T04:50:21;97617.47;;;16.68;88.69
20987;BME280;10652;50.306;8.570;2023-07-31T04:54:23;97625.09;;;16.84;88.45
20987;BME280;10652;50.306;8.570;2023-07-31T04:58:28;97627.84;;;16.82;85.66
20987;BME280;10652;50.306;8.570;2023-07-31T05:02:30;97623.28;;;16.84;86.13
20987;BME280;10652;50.306;8.570;2023-07-31T05:06:32;97629.28;;;16.86;85.61
20987;BME280;10652;50.306;8.570;2023-07-31T05:10:34;97642.94;;;16.93;85.29
20987;BME280;10652;50.306;8.570;2023-07-31T05:14:37;97640.75;;;17.09;85.37
20987;BME280;10652;50.306;8.570;2023-07-31T05:18:39;97633.72;;;17.19;84.38
20987;BME280;10652;50.306;8.570;2023-07-31T05:22:41;97638.66;;;17.24;84.48
20987;BME280;10652;50.306;8.570;2023-07-31T05:26:43;97637.81;;;17.34;83.64
20987;BME280;10652;50.306;8.570;2023-07-31T05:30:45;97642.41;;;17.32;83.70
20987;BME280;10652;50.306;8.570;2023-07-31T05:34:47;97637.81;;;17.23;83.90
20987;BME280;10652;50.306;8.570;2023-07-31T05:38:49;97631.94;;;17.20;84.25
20987;BME280;10652;50.306;8.570;2023-07-31T05:42:51;97616.97;;;17.19;84.65
20987;BME280;10652;50.306;8.570;2023-07-31T05:46:53;97629.88;;;17.23;85.61
20987;BME280;10652;50.306;8.570;2023-07-31T05:50:56;97621.38;;;17.40;84.05
20987;BME280;10652;50.306;8.570;2023-07-31T05:54:58;97616.31;;;17.37;83.38
20987;BME280;10652;50.306;8.570;2023-07-31T05:59:00;97613.53;;;17.50;83.73
20987;BME280;10652;50.306;8.570;2023-07-31T06:03:02;97620.16;;;17.56;82.17
20987;BME280;10652;50.306;8.570;2023-07-31T06:07:05;97602.44;;;17.77;81.26
20987;BME280;10652;50.306;8.570;2023-07-31T06:11:07;97601.94;;;18.04;79.57
20987;BME280;10652;50.306;8.570;2023-07-31T06:15:11;97591.97;;;18.17;76.90
20987;BME280;10652;50.306;8.570;2023-07-31T06:19:13;97596.56;;;18.15;76.45
20987;BME280;10652;50.306;8.570;2023-07-31T06:23:15;97601.69;;;18.27;74.38
20987;BME280;10652;50.306;8.570;2023-07-31T06:27:17;97592.66;;;18.30;72.16
20987;BME280;10652;50.306;8.570;2023-07-31T06:31:19;97601.84;;;18.26;70.87
20987;BME280;10652;50.306;8.570;2023-07-31T06:35:24;97600.06;;;18.15;71.80
20987;BME280;10652;50.306;8.570;2023-07-31T06:39:27;97592.25;;;18.34;71.83
20987;BME280;10652;50.306;8.570;2023-07-31T06:43:29;97575.28;;;18.56;70.39
20987;BME280;10652;50.306;8.570;2023-07-31T06:47:31;97586.38;;;18.40;70.51
20987;BME280;10652;50.306;8.570;2023-07-31T06:51:34;97591.78;;;18.29;71.23
20987;BME280;10652;50.306;8.570;2023-07-31T06:55:37;97588.78;;;18.23;71.41
20987;BME280;10652;50.306;8.570;2023-07-31T06:59:39;97600.13;;;18.46;71.24
20987;BME280;10652;50.306;8.570;2023-07-31T07:03:42;97590.28;;;19.85;66.52
20987;BME280;10652;50.306;8.570;2023-07-31T07:07:44;97589.88;;;19.99;64.19
20987;BME280;10652;50.306;8.570;2023-07-31T07:11:46;97595.34;;;19.69;64.21
20987;BME280;10652;50.306;8.570;2023-07-31T07:15:49;97579.91;;;19.82;64.53
20987;BME280;10652;50.306;8.570;2023-07-31T07:19:51;97560.91;;;20.33;61.42
20987;BME280;10652;50.306;8.570;2023-07-31T07:23:54;97559.25;;;20.23;62.08
20987;BME280;10652;50.306;8.570;2023-07-31T07:27:56;97563.81;;;19.93;61.31
20987;BME280;10652;50.306;8.570;2023-07-31T07:31:58;97580.88;;;19.43;63.21
20987;BME280;10652;50.306;8.570;2023-07-31T07:36:01;97579.25;;;19.11;65.68
20987;BME280;10652;50.306;8.570;2023-07-31T07:40:04;97568.72;;;19.00;66.98
20987;BME280;10652;50.306;8.570;2023-07-31T07:44:08;97575.75;;;19.11;68.04
20987;BME280;10652;50.306;8.570;2023-07-31T07:48:10;97565.41;;;19.17;68.20
20987;BME280;10652;50.306;8.570;2023-07-31T07:52:12;97569.66;;;19.29;66.96
20987;BME280;10652;50.306;8.570;2023-07-31T07:56:14;97568.50;;;19.22;66.98
20987;BME280;10652;50.306;8.570;2023-07-31T08:00:16;97579.56;;;19.18;66.73
20987;BME280;10652;50.306;8.570;2023-07-31T08:04:19;97568.22;;;19.16;67.00
20987;BME280;10652;50.306;8.570;2023-07-31T08:08:21;97568.78;;;19.19;67.18
20987;BME280;10652;50.306;8.570;2023-07-31T08:12:23;97574.28;;;19.37;67.12
20987;BME280;10652;50.306;8.570;2023-07-31T08:16:25;97577.41;;;19.61;66.24
20987;BME280;10652;50.306;8.570;2023-07-31T08:20:27;97557.88;;;19.99;65.66
20987;BME280;10652;50.306;8.570;2023-07-31T08:24:29;97549.88;;;20.55;63.46
20987;BME280;10652;50.306;8.570;2023-07-31T08:28:31;97545.94;;;20.59;62.29
20987;BME280;10652;50.306;8.570;2023-07-31T08:32:34;97536.63;;;20.73;61.24
20987;BME280;10652;50.306;8.570;2023-07-31T08:36:36;97538.63;;;20.71;60.77
20987;BME280;10652;50.306;8.570;2023-07-31T08:40:38;97534.09;;;20.35;60.93
20987;BME280;10652;50.306;8.570;2023-07-31T08:44:41;97536.28;;;20.12;62.63
20987;BME280;10652;50.306;8.570;2023-07-31T08:48:43;97556.38;;;19.97;62.85
20987;BME280;10652;50.306;8.570;2023-07-31T08:52:47;97542.47;;;19.93;65.29
20987;BME280;10652;50.306;8.570;2023-07-31T08:56:50;97541.31;;;20.05;65.89
20987;BME280;10652;50.306;8.570;2023-07-31T09:00:55;97542.84;;;20.17;65.25
20987;BME280;10652;50.306;8.570;2023-07-31T09:04:57;97538.44;;;20.26;64.00
20987;BME280;10652;50.306;8.570;2023-07-31T09:09:00;97531.19;;;20.09;64.66
20987;BME280;10652;50.306;8.570;2023-07-31T09:13:02;97525.63;;;19.83;66.15
20987;BME280;10652;50.306;8.570;2023-07-31T09:17:05;97528.72;;;19.50;67.02
20987;BME280;10652;50.306;8.570;2023-07-31T09:21:07;97537.53;;;19.21;68.97
20987;BME280;10652;50.306;8.570;2023-07-31T09:25:18;97538.59;;;19.09;71.91
20987;BME280;10652;50.306;8.570;2023-07-31T09:29:20;97542.69;;;19.13;71.86
20987;BME280;10652;50.306;8.570;2023-07-31T09:33:22;97545.91;;;19.07;73.43
20987;BME280;10652;50.306;8.570;2023-07-31T09:37:24;97545.31;;;19.04;75.10
20987;BME280;10652;50.306;8.570;2023-07-31T09:41:27;97548.97;;;19.12;75.51
20987;BME280;10652;50.306;8.570;2023-07-31T09:45:29;97541.88;;;19.22;75.59
20987;BME280;10652;50.306;8.570;2023-07-31T09:49:45;97542.19;;;19.48;76.04
20987;BME280;10652;50.306;8.570;2023-07-31T09:53:50;97528.72;;;19.79;75.93
20987;BME280;10652;50.306;8.570;2023-07-31T09:57:55;97513.03;;;20.32;75.52
20987;BME280;10652;50.306;8.570;2023-07-31T10:01:58;97514.16;;;20.76;73.41
20987;BME280;10652;50.306;8.570;2023-07-31T10:06:01;97507.09;;;20.84;71.48
20987;BME280;10652;50.306;8.570;2023-07-31T10:10:05;97498.91;;;20.86;71.55
20987;BME280;10652;50.306;8.570;2023-07-31T10:14:08;97495.28;;;20.77;70.45
20987;BME280;10652;50.306;8.570;2023-07-31T10:18:11;97478.22;;;20.70;69.87
20987;BME280;10652;50.306;8.570;2023-07-31T10:22:14;97480.66;;;20.81;72.21
20987;BME280;10652;50.306;8.570;2023-07-31T10:26:18;97471.22;;;21.04;69.42
20987;BME280;10652;50.306;8.570;2023-07-31T10:30:26;97456.06;;;21.23;67.61
20987;BME280;10652;50.306;8.570;2023-07-31T10:34:28;97457.66;;;21.33;64.27
20987;BME280;10652;50.306;8.570;2023-07-31T10:38:31;97455.19;;;21.40;63.42
20987;BME280;10652;50.306;8.570;2023-07-31T10:42:38;97455.19;;;21.40;62.63
20987;BME280;10652;50.306;8.570;2023-07-31T10:46:41;97457.28;;;21.28;62.71
20987;BME280;10652;50.306;8.570;2023-07-31T10:50:52;97459.88;;;21.02;62.56
20987;BME280;10652;50.306;8.570;2023-07-31T10:55:38;97464.09;;;20.78;63.70
20987;BME280;10652;50.306;8.570;2023-07-31T10:59:40;97455.13;;;20.79;62.80
20987;BME280;10652;50.306;8.570;2023-07-31T11:03:47;97469.38;;;20.87;64.66
20987;BME280;10652;50.306;8.570;2023-07-31T11:07:51;97459.03;;;20.84;62.93
20987;BME280;10652;50.306;8.570;2023-07-31T11:11:53;97450.31;;;20.82;62.62
20987;BME280;10652;50.306;8.570;2023-07-31T11:15:56;97438.59;;;20.66;62.11
20987;BME280;10652;50.306;8.570;2023-07-31T11:19:58;97424.97;;;20.59;62.88
20987;BME280;10652;50.306;8.570;2023-07-31T11:24:00;97430.72;;;20.64;62.17
20987;BME280;10652;50.306;8.570;2023-07-31T11:28:07;97432.84;;;20.70;61.64
20987;BME280;10652;50.306;8.570;2023-07-31T11:32:16;97435.28;;;20.81;61.37
20987;BME280;10652;50.306;8.570;2023-07-31T11:36:20;97430.63;;;20.83;60.16
20987;BME280;10652;50.306;8.570;2023-07-31T11:40:23;97431.16;;;20.87;58.69
20987;BME280;10652;50.306;8.570;2023-07-31T11:44:39;97419.09;;;20.83;59.06
20987;BME280;10652;50.306;8.570;2023-07-31T11:48:43;97413.91;;;20.99;59.05
20987;BME280;10652;50.306;8.570;2023-07-31T11:52:48;97404.75;;;21.19;58.26
20987;BME280;10652;50.306;8.570;2023-07-31T11:56:52;97413.28;;;21.58;57.40
20987;BME280;10652;50.306;8.570;2023-07-31T12:00:54;97404.03;;;21.70;56.25
20987;BME280;10652;50.306;8.570;2023-07-31T12:04:57;97398.97;;;21.93;56.03
20987;BME280;10652;50.306;8.570;2023-07-31T12:09:03;97392.13;;;21.99;54.67
20987;BME280;10652;50.306;8.570;2023-07-31T12:13:11;97394.69;;;21.74;55.56
20987;BME280;10652;50.306;8.570;2023-07-31T12:17:18;97377.91;;;21.64;56.56
20987;BME280;10652;50.306;8.570;2023-07-31T12:21:22;97381.97;;;21.76;55.89
20987;BME280;10652;50.306;8.570;2023-07-31T12:25:33;97376.34;;;21.79;54.78
20987;BME280;10652;50.306;8.570;2023-07-31T12:29:35;97376.78;;;22.01;54.68
20987;BME280;10652;50.306;8.570;2023-07-31T12:33:42;97369.91;;;22.24;54.09
20987;BME280;10652;50.306;8.570;2023-07-31T12:37:45;97360.25;;;22.39;53.39
20987;BME280;10652;50.306;8.570;2023-07-31T12:41:47;97360.94;;;22.49;52.40
20987;BME280;10652;50.306;8.570;2023-07-31T12:45:49;97361.28;;;22.62;52.68
20987;BME280;10652;50.306;8.570;2023-07-31T12:49:51;97349.09;;;22.68;52.95
20987;BME280;10652;50.306;8.570;2023-07-31T12:53:53;97344.22;;;22.47;52.07
20987;BME280;10652;50.306;8.570;2023-07-31T12:57:56;97334.47;;;22.30;53.14
20987;BME280;10652;50.306;8.570;2023-07-31T13:01:58;97324.94;;;22.35;53.71
20987;BME280;10652;50.306;8.570;2023-07-31T13:06:00;97332.47;;;22.40;53.09
20987;BME280;10652;50.306;8.570;2023-07-31T13:10:02;97333.50;;;22.47;52.73
20987;BME280;10652;50.306;8.570;2023-07-31T13:14:04;97339.06;;;22.62;52.66
20987;BME280;10652;50.306;8.570;2023-07-31T13:18:07;97338.22;;;22.69;52.21
20987;BME280;10652;50.306;8.570;2023-07-31T13:22:09;97346.91;;;22.71;52.15
20987;BME280;10652;50.306;8.570;2023-07-31T13:26:12;97325.22;;;22.91;51.98
20987;BME280;10652;50.306;8.570;2023-07-31T13:30:14;97333.59;;;23.04;51.67
20987;BME280;10652;50.306;8.570;2023-07-31T13:34:16;97325.38;;;23.21;51.76
20987;BME280;10652;50.306;8.570;2023-07-31T13:38:18;97325.38;;;23.30;51.53
20987;BME280;10652;50.306;8.570;2023-07-31T13:42:20;97316.81;;;23.26;51.51
20987;BME280;10652;50.306;8.570;2023-07-31T13:46:24;97321.19;;;23.19;51.26
20987;BME280;10652;50.306;8.570;2023-07-31T13:50:27;97313.50;;;23.08;51.39
20987;BME280;10652;50.306;8.570;2023-07-31T13:54:30;97310.47;;;22.95;51.82
20987;BME280;10652;50.306;8.570;2023-07-31T13:58:33;97320.63;;;22.67;52.79
20987;BME280;10652;50.306;8.570;2023-07-31T14:02:35;97320.78;;;22.49;53.51
20987;BME280;10652;50.306;8.570;2023-07-31T14:06:37;97315.91;;;22.36;53.55
20987;BME280;10652;50.306;8.570;2023-07-31T14:10:40;97320.28;;;22.04;54.27
20987;BME280;10652;50.306;8.570;2023-07-31T14:14:42;97309.16;;;21.82;55.63
20987;BME280;10652;50.306;8.570;2023-07-31T14:18:44;97273.06;;;21.86;56.32
20987;BME280;10652;50.306;8.570;2023-07-31T14:22:50;97268.13;;;22.08;55.06
20987;BME280;10652;50.306;8.570;2023-07-31T14:26:52;97279.25;;;22.21;55.10
20987;BME280;10652;50.306;8.570;2023-07-31T14:30:54;97281.31;;;22.51;54.81
20987;BME280;10652;50.306;8.570;2023-07-31T14:34:56;97274.97;;;22.60;54.64
20987;BME280;10652;50.306;8.570;2023-07-31T14:38:58;97283.31;;;22.49;54.81
20987;BME280;10652;50.306;8.570;2023-07-31T14:43:00;97284.47;;;22.39;54.75
20987;BME280;10652;50.306;8.570;2023-07-31T14:47:03;97295.34;;;22.37;54.93
20987;BME280;10652;50.306;8.570;2023-07-31T14:51:05;97269.41;;;22.38;54.71
20987;BME280;10652;50.306;8.570;2023-07-31T14:55:07;97277.28;;;22.39;55.14
20987;BME280;10652;50.306;8.570;2023-07-31T14:59:11;97277.59;;;22.36;55.25
20987;BME280;10652;50.306;8.570;2023-07-31T15:03:13;97286.25;;;22.22;55.27
20987;BME280;10652;50.306;8.570;2023-07-31T15:07:15;97282.22;;;22.18;55.84
20987;BME280;10652;50.306;8.570;2023-07-31T15:11:17;97277.88;;;22.17;56.17
20987;BME280;10652;50.306;8.570;2023-07-31T15:15:20;97285.84;;;22.09;55.77
20987;BME280;10652;50.306;8.570;2023-07-31T15:19:22;97284.75;;;21.85;56.13
20987;BME280;10652;50.306;8.570;2023-07-31T15:23:27;97282.00;;;21.61;56.89
20987;BME280;10652;50.306;8.570;2023-07-31T15:27:29;97274.56;;;21.47;57.68
20987;BME280;10652;50.306;8.570;2023-07-31T15:31:31;97267.53;;;21.46;58.76
20987;BME280;10652;50.306;8.570;2023-07-31T15:35:34;97266.13;;;21.68;59.71
20987;BME280;10652;50.306;8.570;2023-07-31T15:39:36;97262.88;;;21.90;57.35
20987;BME280;10652;50.306;8.570;2023-07-31T15:43:38;97269.69;;;21.76;56.43
20987;BME280;10652;50.306;8.570;2023-07-31T15:47:40;97272.97;;;21.62;56.60
20987;BME280;10652;50.306;8.570;2023-07-31T15:51:42;97278.53;;;21.43;56.69
20987;BME280;10652;50.306;8.570;2023-07-31T15:55:44;97270.03;;;21.22;57.17
20987;BME280;10652;50.306;8.570;2023-07-31T15:59:46;97265.09;;;21.09;58.20
20987;BME280;10652;50.306;8.570;2023-07-31T16:03:48;97277.53;;;20.92;58.51
20987;BME280;10652;50.306;8.570;2023-07-31T16:07:51;97264.34;;;20.73;59.13
20987;BME280;10652;50.306;8.570;2023-07-31T16:11:53;97281.84;;;20.58;59.87
20987;BME280;10652;50.306;8.570;2023-07-31T16:15:55;97280.41;;;20.46;60.82
20987;BME280;10652;50.306;8.570;2023-07-31T16:19:58;97275.31;;;20.35;62.09
20987;BME280;10652;50.306;8.570;2023-07-31T16:24:01;97273.00;;;20.22;63.13
20987;BME280;10652;50.306;8.570;2023-07-31T16:28:03;97264.78;;;20.15;63.27
20987;BME280;10652;50.306;8.570;2023-07-31T16:32:05;97251.50;;;20.06;63.30
20987;BME280;10652;50.306;8.570;2023-07-31T16:36:12;97237.66;;;20.02;63.69
20987;BME280;10652;50.306;8.570;2023-07-31T16:40:15;97235.66;;;20.04;64.20
20987;BME280;10652;50.306;8.570;2023-07-31T16:44:17;97226.91;;;20.12;64.24
20987;BME280;10652;50.306;8.570;2023-07-31T16:48:19;97232.84;;;20.24;64.15
20987;BME280;10652;50.306;8.570;2023-07-31T16:52:22;97238.19;;;20.24;63.23
20987;BME280;10652;50.306;8.570;2023-07-31T16:56:24;97220.28;;;20.16;63.72
20987;BME280;10652;50.306;8.570;2023-07-31T17:00:27;97219.97;;;20.19;64.36
20987;BME280;10652;50.306;8.570;2023-07-31T17:04:30;97235.06;;;20.10;64.30
20987;BME280;10652;50.306;8.570;2023-07-31T17:08:33;97222.25;;;19.96;64.45
20987;BME280;10652;50.306;8.570;2023-07-31T17:12:35;97220.88;;;19.83;64.95
20987;BME280;10652;50.306;8.570;2023-07-31T17:16:37;97219.97;;;19.74;65.79
20987;BME280;10652;50.306;8.570;2023-07-31T17:20:39;97229.84;;;19.64;67.09
20987;BME280;10652;50.306;8.570;2023-07-31T17:24:42;97228.38;;;19.52;68.14
20987;BME280;10652;50.306;8.570;2023-07-31T17:28:44;97214.81;;;19.36;68.95
20987;BME280;10652;50.306;8.570;2023-07-31T17:32:47;97203.84;;;19.21;68.86
20987;BME280;10652;50.306;8.570;2023-07-31T17:36:49;97207.59;;;19.09;69.66
20987;BME280;10652;50.306;8.570;2023-07-31T17:40:51;97203.59;;;18.95;71.32
20987;BME280;10652;50.306;8.570;2023-07-31T17:44:54;97203.38;;;18.79;72.96
20987;BME280;10652;50.306;8.570;2023-07-31T17:48:56;97190.66;;;18.54;74.41
20987;BME280;10652;50.306;8.570;2023-07-31T17:53:01;97176.13;;;18.38;76.91
20987;BME280;10652;50.306;8.570;2023-07-31T17:57:04;97171.50;;;18.31;78.52
20987;BME280;10652;50.306;8.570;2023-07-31T18:01:06;97161.84;;;18.20;78.87
20987;BME280;10652;50.306;8.570;2023-07-31T18:05:09;97160.88;;;18.02;79.71
20987;BME280;10652;50.306;8.570;2023-07-31T18:09:11;97160.44;;;17.97;81.65
20987;BME280;10652;50.306;8.570;2023-07-31T18:13:13;97153.03;;;17.91;82.68
20987;BME280;10652;50.306;8.570;2023-07-31T18:17:16;97147.88;;;17.80;83.09
20987;BME280;10652;50.306;8.570;2023-07-31T18:21:18;97149.25;;;17.74;84.13
20987;BME280;10652;50.306;8.570;2023-07-31T18:25:20;97163.38;;;17.75;84.64
20987;BME280;10652;50.306;8.570;2023-07-31T18:29:23;97169.78;;;17.72;85.36
20987;BME280;10652;50.306;8.570;2023-07-31T18:33:26;97155.25;;;17.67;86.00
20987;BME280;10652;50.306;8.570;2023-07-31T18:37:28;97163.06;;;17.59;86.35
20987;BME280;10652;50.306;8.570;2023-07-31T18:41:30;97149.66;;;17.60;86.92
20987;BME280;10652;50.306;8.570;2023-07-31T18:45:33;97139.88;;;17.61;86.63
20987;BME280;10652;50.306;8.570;2023-07-31T18:49:35;97118.91;;;17.58;85.94
20987;BME280;10652;50.306;8.570;2023-07-31T18:53:37;97138.72;;;17.53;86.00
20987;BME280;10652;50.306;8.570;2023-07-31T18:57:39;97115.53;;;17.56;85.60
20987;BME280;10652;50.306;8.570;2023-07-31T19:01:42;97118.31;;;17.54;85.03
20987;BME280;10652;50.306;8.570;2023-07-31T19:05:46;97118.47;;;17.52;85.21
20987;BME280;10652;50.306;8.570;2023-07-31T19:09:48;97125.28;;;17.45;84.96
20987;BME280;10652;50.306;8.570;2023-07-31T19:14:05;97109.53;;;17.44;85.70
20987;BME280;10652;50.306;8.570;2023-07-31T19:18:07;97125.28;;;17.45;85.97
20987;BME280;10652;50.306;8.570;2023-07-31T19:22:09;97111.34;;;17.43;86.17
20987;BME280;10652;50.306;8.570;2023-07-31T19:26:12;97117.16;;;17.37;86.75
20987;BME280;10652;50.306;8.570;2023-07-31T19:30:15;97115.22;;;17.39;87.99
20987;BME280;10652;50.306;8.570;2023-07-31T19:34:18;97112.13;;;17.34;87.42
20987;BME280;10652;50.306;8.570;2023-07-31T19:38:20;97111.25;;;17.24;87.90
20987;BME280;10652;50.306;8.570;2023-07-31T19:42:22;97104.94;;;17.16;89.56
20987;BME280;10652;50.306;8.570;2023-07-31T19:46:24;97107.84;;;17.13;90.94
20987;BME280;10652;50.306;8.570;2023-07-31T19:50:26;97101.94;;;16.99;92.66
20987;BME280;10652;50.306;8.570;2023-07-31T19:54:28;97093.00;;;16.91;95.21
20987;BME280;10652;50.306;8.570;2023-07-31T19:58:31;97084.03;;;16.82;96.64
20987;BME280;10652;50.306;8.570;2023-07-31T20:02:33;97073.69;;;16.79;97.97
20987;BME280;10652;50.306;8.570;2023-07-31T20:06:35;97069.75;;;16.74;99.13
20987;BME280;10652;50.306;8.570;2023-07-31T20:10:37;97071.69;;;16.72;100.00
20987;BME280;10652;50.306;8.570;2023-07-31T20:14:39;97060.28;;;16.81;100.00
20987;BME280;10652;50.306;8.570;2023-07-31T20:18:41;97063.75;;;16.72;100.00
20987;BME280;10652;50.306;8.570;2023-07-31T20:22:45;97058.03;;;16.67;100.00
20987;BME280;10652;50.306;8.570;2023-07-31T20:26:48;97047.53;;;16.65;100.00
20987;BME280;10652;50.306;8.570;2023-07-31T20:30:50;97044.78;;;16.67;100.00
20987;BME280;10652;50.306;8.570;2023-07-31T20:34:52;97036.81;;;16.67;100.00
20987;BME280;10652;50.306;8.570;2023-07-31T20:38:54;97032.03;;;16.60;100.00
20987;BME280;10652;50.306;8.570;2023-07-31T20:42:58;97034.81;;;16.59;100.00
20987;BME280;10652;50.306;8.570;2023-07-31T20:47:00;97022.66;;;16.56;100.00
20987;BME280;10652;50.306;8.570;2023-07-31T20:51:02;97017.38;;;16.56;100.00
20987;BME280;10652;50.306;8.570;2023-07-31T20:55:05;97010.63;;;16.52;100.00
20987;BME280;10652;50.306;8.570;2023-07-31T20:59:07;97009.34;;;16.47;100.00
20987;BME280;10652;50.306;8.570;2023-07-31T21:03:10;97014.09;;;16.43;100.00
20987;BME280;10652;50.306;8.570;2023-07-31T21:07:13;96994.81;;;16.41;100.00
20987;BME280;10652;50.306;8.570;2023-07-31T21:11:17;96992.56;;;16.37;100.00
20987;BME280;10652;50.306;8.570;2023-07-31T21:15:19;96977.78;;;16.34;100.00
20987;BME280;10652;50.306;8.570;2023-07-31T21:19:21;96976.63;;;16.27;100.00
20987;BME280;10652;50.306;8.570;2023-07-31T21:23:23;96963.63;;;16.24;100.00
20987;BME280;10652;50.306;8.570;2023-07-31T21:27:25;96951.47;;;16.21;100.00
20987;BME280;10652;50.306;8.570;2023-07-31T21:31:28;96943.38;;;16.13;100.00
20987;BME280;10652;50.306;8.570;2023-07-31T21:35:30;96928.31;;;16.14;100.00